createdAt,value
2017-12-28T00:00:59.306Z,93.11
2017-12-28T00:03:28.022Z,93.43
2017-12-28T00:06:02.210Z,94.10
2017-12-28T00:18:27.543Z,93.76
2017-12-28T00:20:55.732Z,93.90
2017-12-28T00:23:26.066Z,93.71
2017-12-28T00:25:57.901Z,93.31
2017-12-28T00:28:26.165Z,93.25
2017-12-28T00:30:55.495Z,93.72
2017-12-28T00:33:24.429Z,93.22
2017-12-28T00:35:58.015Z,93.59
2017-12-28T00:38:30.646Z,93.53
2017-12-28T00:41:00.412Z,94.13
2017-12-28T00:43:36.310Z,93.73
2017-12-28T00:46:04.303Z,94.13
2017-12-28T00:48:38.077Z,94.15
2017-12-28T00:51:09.549Z,94.07
2017-12-28T00:53:37.288Z,93.84
2017-12-28T00:56:10.434Z,93.21
2017-12-28T00:58:44.871Z,94.00
2017-12-28T01:01:16.713Z,93.90
2017-12-28T01:03:49.212Z,94.31
2017-12-28T01:06:22.723Z,93.79
2017-12-28T01:08:51.005Z,93.71
2017-12-28T01:11:18.714Z,93.67
2017-12-28T01:13:48.820Z,93.42
2017-12-28T01:16:16.536Z,93.50
2017-12-28T01:18:43.558Z,93.47
2017-12-28T01:21:12.522Z,93.06
2017-12-28T01:23:39.845Z,93.66
2017-12-28T01:26:07.648Z,92.91
2017-12-28T01:28:34.887Z,93.63
2017-12-28T01:31:07.827Z,93.04
2017-12-28T01:33:35.458Z,93.80
2017-12-28T01:36:02.333Z,93.46
2017-12-28T01:38:31.733Z,94.04
2017-12-28T01:41:00.280Z,93.58
2017-12-28T01:43:30.481Z,93.31
2017-12-28T01:45:58.498Z,92.67
2017-12-28T01:48:30.628Z,93.10
2017-12-28T01:50:57.494Z,93.47
2017-12-28T01:53:24.618Z,93.55
2017-12-28T01:55:54.886Z,93.32
2017-12-28T01:58:22.758Z,93.48
2017-12-28T02:00:54.815Z,93.19
2017-12-28T02:03:23.023Z,93.14
2017-12-28T02:05:50.378Z,92.71
2017-12-28T02:08:18.013Z,93.17
2017-12-28T02:10:45.724Z,93.55
2017-12-28T02:13:12.739Z,93.25
2017-12-28T02:15:39.703Z,93.41
2017-12-28T02:18:07.711Z,92.99
2017-12-28T02:20:34.897Z,92.36
2017-12-28T02:23:01.905Z,92.71
2017-12-28T02:25:34.243Z,92.31
2017-12-28T02:28:01.314Z,92.67
2017-12-28T02:30:28.129Z,93.22
2017-12-28T02:33:00.705Z,93.03
2017-12-28T02:35:27.627Z,93.16
2017-12-28T02:37:54.720Z,93.25
2017-12-28T02:40:22.483Z,93.41
2017-12-28T02:42:49.344Z,92.85
2017-12-28T02:45:16.182Z,93.13
2017-12-28T02:47:50.465Z,93.00
2017-12-28T02:50:17.439Z,93.05
2017-12-28T02:52:47.878Z,93.64
2017-12-28T02:55:20.723Z,93.00
2017-12-28T02:57:47.923Z,93.88
2017-12-28T03:00:21.162Z,93.19
2017-12-28T03:02:48.470Z,92.56
2017-12-28T03:05:15.738Z,93.32
2017-12-28T03:07:43.117Z,94.15
2017-12-28T03:10:10.842Z,93.54
2017-12-28T03:12:37.876Z,93.42
2017-12-28T03:15:05.125Z,92.90
2017-12-28T03:17:35.126Z,93.11
2017-12-28T03:20:02.347Z,93.41
2017-12-28T03:22:30.330Z,93.48
2017-12-28T03:24:57.982Z,94.19
2017-12-28T03:27:25.282Z,94.93
2017-12-28T03:29:57.776Z,94.71
2017-12-28T03:32:25.372Z,94.13
2017-12-28T03:34:53.040Z,93.51
2017-12-28T03:37:23.126Z,94.27
2017-12-28T03:39:51.597Z,93.96
2017-12-28T03:42:18.635Z,93.28
2017-12-28T03:44:50.900Z,95.23
2017-12-28T03:47:17.935Z,94.07
2017-12-28T03:49:44.796Z,94.61
2017-12-28T03:52:11.599Z,94.31
2017-12-28T03:54:40.239Z,94.41
2017-12-28T03:57:08.111Z,94.12
2017-12-28T03:59:40.241Z,93.35
2017-12-28T04:02:12.555Z,94.43
2017-12-28T04:04:43.914Z,94.11
2017-12-28T04:07:12.200Z,95.59
2017-12-28T04:09:39.311Z,94.26
2017-12-28T04:12:06.291Z,95.12
2017-12-28T04:14:38.483Z,95.13
2017-12-28T04:17:05.512Z,95.04
2017-12-28T04:19:33.121Z,95.27
2017-12-28T04:22:00.090Z,93.71
2017-12-28T04:24:26.976Z,94.79
2017-12-28T04:26:54.049Z,93.45
2017-12-28T04:29:27.374Z,93.62
2017-12-28T04:31:54.605Z,93.23
2017-12-28T04:34:27.395Z,93.84
2017-12-28T04:36:54.390Z,94.49
2017-12-28T04:39:22.335Z,93.96
2017-12-28T04:41:49.511Z,94.27
2017-12-28T04:44:16.819Z,94.06
2017-12-28T04:46:43.711Z,93.76
2017-12-28T04:49:11.075Z,93.88
2017-12-28T04:51:38.055Z,94.12
2017-12-28T04:54:11.545Z,93.79
2017-12-28T04:56:38.483Z,93.22
2017-12-28T04:59:05.569Z,93.87
2017-12-28T05:01:32.602Z,93.71
2017-12-28T05:04:00.579Z,94.08
2017-12-28T05:06:33.829Z,93.59
2017-12-28T05:09:06.171Z,92.94
2017-12-28T05:11:32.971Z,93.02
2017-12-28T05:14:00.183Z,93.11
2017-12-28T05:16:27.784Z,93.75
2017-12-28T05:18:54.642Z,93.42
2017-12-28T05:21:26.699Z,92.78
2017-12-28T05:23:54.416Z,92.99
2017-12-28T05:26:26.592Z,92.35
2017-12-28T05:28:53.562Z,92.36
2017-12-28T05:31:20.518Z,93.35
2017-12-28T05:33:58.894Z,93.94
2017-12-28T05:36:25.870Z,94.00
2017-12-28T05:38:54.066Z,93.85
2017-12-28T05:41:26.293Z,94.54
2017-12-28T05:43:54.371Z,94.07
2017-12-28T05:46:21.692Z,94.21
2017-12-28T05:48:48.655Z,94.29
2017-12-28T05:51:15.613Z,93.13
2017-12-28T05:53:42.501Z,92.63
2017-12-28T05:56:09.353Z,93.37
2017-12-28T05:58:42.540Z,92.76
2017-12-28T06:01:10.288Z,93.59
2017-12-28T06:03:37.611Z,93.42
2017-12-28T06:06:05.603Z,93.33
2017-12-28T06:08:33.433Z,92.92
2017-12-28T06:11:00.320Z,94.03
2017-12-28T06:13:33.296Z,93.99
2017-12-28T06:16:00.324Z,93.78
2017-12-28T06:18:27.162Z,93.87
2017-12-28T06:20:55.240Z,93.18
2017-12-28T06:23:22.230Z,92.48
2017-12-28T06:25:54.220Z,92.99
2017-12-28T06:28:21.419Z,93.58
2017-12-28T06:30:49.241Z,93.63
2017-12-28T06:33:16.976Z,93.42
2017-12-28T06:35:45.401Z,93.44
2017-12-28T06:38:12.813Z,93.13
2017-12-28T06:40:46.574Z,92.95
2017-12-28T06:43:19.639Z,93.96
2017-12-28T06:45:47.188Z,93.60
2017-12-28T06:48:14.828Z,93.38
2017-12-28T06:50:42.442Z,93.15
2017-12-28T06:53:09.822Z,94.31
2017-12-28T06:55:42.195Z,93.24
2017-12-28T06:58:09.833Z,93.42
2017-12-28T07:00:41.943Z,94.14
2017-12-28T07:03:08.990Z,93.05
2017-12-28T07:05:36.622Z,93.04
2017-12-28T07:08:03.447Z,93.56
2017-12-28T07:10:30.427Z,93.04
2017-12-28T07:12:58.007Z,92.70
2017-12-28T07:15:26.525Z,92.76
2017-12-28T07:17:53.940Z,93.13
2017-12-28T07:20:26.377Z,92.44
2017-12-28T07:22:53.388Z,94.03
2017-12-28T07:25:20.167Z,93.84
2017-12-28T07:27:47.193Z,92.64
2017-12-28T07:30:14.908Z,93.29
2017-12-28T07:32:44.926Z,92.98
2017-12-28T07:35:12.789Z,93.08
2017-12-28T07:37:40.004Z,93.66
2017-12-28T07:40:06.805Z,92.99
2017-12-28T07:42:33.779Z,93.73
2017-12-28T07:45:00.811Z,93.24
2017-12-28T07:47:27.808Z,92.72
2017-12-28T07:49:57.868Z,93.25
2017-12-28T07:52:24.907Z,93.75
2017-12-28T07:54:52.096Z,94.16
2017-12-28T07:57:19.083Z,93.38
2017-12-28T07:59:46.764Z,93.49
2017-12-28T08:02:14.598Z,92.87
2017-12-28T08:04:41.639Z,93.16
2017-12-28T08:07:08.597Z,93.04
2017-12-28T08:09:36.279Z,93.85
2017-12-28T08:12:03.110Z,93.65
2017-12-28T08:14:35.363Z,94.28
2017-12-28T08:17:03.879Z,93.64
2017-12-28T08:19:31.508Z,93.56
2017-12-28T08:21:58.320Z,93.47
2017-12-28T08:24:26.039Z,93.06
2017-12-28T08:26:52.937Z,93.12
2017-12-28T08:29:25.089Z,93.85
2017-12-28T08:31:52.278Z,92.91
2017-12-28T08:34:20.391Z,93.99
2017-12-28T08:36:47.729Z,93.86
2017-12-28T08:39:14.566Z,93.55
2017-12-28T08:41:42.175Z,93.46
2017-12-28T08:44:12.732Z,93.40
2017-12-28T08:46:40.018Z,93.31
2017-12-28T08:49:12.937Z,92.96
2017-12-28T08:51:45.229Z,93.53
2017-12-28T08:54:12.187Z,93.60
2017-12-28T08:56:39.165Z,93.12
2017-12-28T08:59:07.196Z,92.79
2017-12-28T09:01:34.326Z,92.04
2017-12-28T09:04:01.148Z,92.33
2017-12-28T09:06:28.775Z,92.62
2017-12-28T09:08:56.817Z,92.29
2017-12-28T09:11:23.743Z,92.63
2017-12-28T09:13:50.635Z,92.66
2017-12-28T09:16:22.510Z,92.55
2017-12-28T09:18:49.412Z,92.60
2017-12-28T09:21:19.627Z,92.65
2017-12-28T09:23:46.651Z,92.74
2017-12-28T09:26:13.712Z,92.96
2017-12-28T09:28:40.904Z,93.19
2017-12-28T09:31:07.890Z,92.97
2017-12-28T09:33:34.837Z,92.43
2017-12-28T09:36:04.879Z,92.76
2017-12-28T09:38:34.807Z,92.77
2017-12-28T09:41:02.194Z,92.82
2017-12-28T09:43:29.169Z,93.14
2017-12-28T09:46:01.093Z,92.36
2017-12-28T09:48:33.411Z,92.40
2017-12-28T09:51:00.534Z,92.55
2017-12-28T09:53:32.783Z,92.66
2017-12-28T09:56:01.066Z,92.40
2017-12-28T09:58:28.111Z,92.54
2017-12-28T10:00:55.057Z,91.72
2017-12-28T10:03:27.332Z,91.75
2017-12-28T10:05:54.570Z,90.95
2017-12-28T10:08:22.044Z,91.54
2017-12-28T10:10:49.919Z,91.36
2017-12-28T10:13:16.775Z,91.81
2017-12-28T10:15:43.537Z,90.77
2017-12-28T10:18:10.370Z,91.08
2017-12-28T10:20:37.215Z,90.81
2017-12-28T10:23:04.049Z,90.75
2017-12-28T10:25:31.595Z,90.26
2017-12-28T10:27:58.389Z,90.64
2017-12-28T10:30:25.994Z,89.80
2017-12-28T10:32:52.781Z,89.97
2017-12-28T10:35:19.585Z,89.18
2017-12-28T10:37:47.125Z,89.87
2017-12-28T10:40:13.968Z,89.62
2017-12-28T10:42:40.777Z,88.34
2017-12-28T10:45:08.349Z,89.18
2017-12-28T10:47:35.159Z,89.53
2017-12-28T10:50:01.996Z,89.73
2017-12-28T10:52:28.787Z,89.44
2017-12-28T10:54:55.627Z,89.81
2017-12-28T10:57:22.465Z,89.05
2017-12-28T10:59:50.041Z,89.12
2017-12-28T11:02:16.852Z,87.44
2017-12-28T11:04:43.689Z,88.71
2017-12-28T11:07:10.505Z,88.34
2017-12-28T11:09:37.326Z,86.61
2017-12-28T11:12:04.178Z,87.94
2017-12-28T11:14:31.032Z,87.64
2017-12-28T11:16:57.875Z,86.41
2017-12-28T11:19:25.410Z,87.36
2017-12-28T11:21:52.204Z,86.34
2017-12-28T11:24:19.763Z,86.24
2017-12-28T11:26:46.631Z,87.21
2017-12-28T11:29:13.438Z,86.57
2017-12-28T11:31:40.263Z,86.05
2017-12-28T11:34:07.847Z,86.17
2017-12-28T11:36:35.439Z,86.63
2017-12-28T11:39:02.290Z,86.92
2017-12-28T11:41:29.074Z,86.62
2017-12-28T11:43:55.884Z,86.54
2017-12-28T11:46:22.700Z,86.13
2017-12-28T11:48:49.549Z,84.37
2017-12-28T11:51:17.166Z,82.69
2017-12-28T11:53:53.945Z,83.32
2017-12-28T11:56:20.845Z,84.84
2017-12-28T11:58:49.491Z,83.99
2017-12-28T12:01:19.336Z,84.74
2017-12-28T12:03:48.102Z,83.43
2017-12-28T12:06:29.862Z,79.69
2017-12-28T12:08:56.700Z,79.36
2017-12-28T12:11:23.499Z,80.35
2017-12-28T12:13:50.314Z,79.82
2017-12-28T12:16:17.107Z,79.78
2017-12-28T12:18:43.931Z,76.36
2017-12-28T12:21:10.739Z,79.00
2017-12-28T12:23:37.576Z,79.70
2017-12-28T12:26:04.373Z,78.86
2017-12-28T12:28:31.961Z,79.36
2017-12-28T12:30:59.526Z,77.79
2017-12-28T12:33:27.154Z,79.23
2017-12-28T12:35:53.973Z,74.76
2017-12-28T12:38:22.251Z,78.88
2017-12-28T12:40:49.089Z,79.01
2017-12-28T12:43:15.895Z,80.29
2017-12-28T12:45:43.530Z,80.39
2017-12-28T12:48:10.344Z,78.14
2017-12-28T12:50:37.201Z,78.89
2017-12-28T12:53:04.810Z,79.30
2017-12-28T12:55:31.653Z,77.65
2017-12-28T12:57:58.446Z,78.80
2017-12-28T13:00:25.287Z,79.31
2017-12-28T13:02:52.118Z,79.46
2017-12-28T13:05:18.986Z,79.27
2017-12-28T13:07:46.530Z,78.73
2017-12-28T13:10:13.390Z,79.50
2017-12-28T13:12:40.220Z,78.60
2017-12-28T13:15:07.051Z,78.36
2017-12-28T13:17:33.882Z,78.19
2017-12-28T13:20:00.694Z,77.31
2017-12-28T13:22:27.512Z,77.39
2017-12-28T13:24:54.304Z,76.86
2017-12-28T13:27:21.140Z,75.02
2017-12-28T13:29:48.676Z,75.65
2017-12-28T13:32:15.471Z,73.58
2017-12-28T13:34:43.878Z,72.30
2017-12-28T13:37:11.418Z,71.14
2017-12-28T13:39:38.245Z,72.86
2017-12-28T13:42:05.091Z,72.68
2017-12-28T13:44:31.863Z,74.23
2017-12-28T13:46:58.700Z,75.43
2017-12-28T13:49:26.272Z,76.10
2017-12-28T13:51:53.825Z,75.40
2017-12-28T13:54:20.673Z,75.93
2017-12-28T13:56:47.491Z,75.39
2017-12-28T13:59:14.331Z,75.22
2017-12-28T14:01:41.890Z,74.81
2017-12-28T14:04:08.718Z,74.04
2017-12-28T14:06:35.519Z,75.54
2017-12-28T14:09:02.454Z,74.04
2017-12-28T14:11:29.242Z,75.74
2017-12-28T14:13:56.076Z,77.03
2017-12-28T14:16:22.926Z,76.92
2017-12-28T14:18:49.818Z,78.08
2017-12-28T14:21:16.616Z,76.97
2017-12-28T14:23:43.401Z,78.44
2017-12-28T14:26:10.241Z,77.37
2017-12-28T14:28:37.089Z,78.13
2017-12-28T14:31:03.945Z,77.78
2017-12-28T14:33:31.549Z,78.64
2017-12-28T14:35:58.358Z,79.23
2017-12-28T14:38:25.176Z,78.64
2017-12-28T14:40:52.083Z,78.06
2017-12-28T14:43:18.880Z,77.96
2017-12-28T14:45:45.753Z,79.44
2017-12-28T14:48:12.578Z,78.32
2017-12-28T14:50:39.409Z,79.17
2017-12-28T14:53:06.294Z,79.05
2017-12-28T14:55:33.108Z,78.89
2017-12-28T14:57:59.913Z,78.90
2017-12-28T15:00:26.739Z,78.98
2017-12-28T15:02:53.547Z,77.94
2017-12-28T15:05:20.345Z,78.33
2017-12-28T15:07:47.150Z,77.50
2017-12-28T15:10:13.968Z,77.97
2017-12-28T15:12:40.792Z,78.47
2017-12-28T15:15:08.406Z,78.11
2017-12-28T15:17:35.275Z,78.20
2017-12-28T15:20:02.089Z,78.19
2017-12-28T15:22:29.654Z,77.46
2017-12-28T15:24:56.480Z,76.24
2017-12-28T15:27:23.297Z,76.99
2017-12-28T15:29:50.823Z,76.73
2017-12-28T15:32:17.666Z,77.21
2017-12-28T15:34:44.468Z,77.09
2017-12-28T15:37:11.305Z,76.40
2017-12-28T15:39:38.119Z,77.46
2017-12-28T15:42:05.652Z,77.91
2017-12-28T15:44:32.450Z,78.32
2017-12-28T15:46:59.986Z,78.14
2017-12-28T15:49:26.797Z,77.57
2017-12-28T15:51:53.633Z,76.13
2017-12-28T15:54:20.468Z,77.67
2017-12-28T15:56:47.303Z,76.63
2017-12-28T15:59:14.181Z,76.71
2017-12-28T16:01:40.983Z,77.19
2017-12-28T16:04:07.823Z,77.31
2017-12-28T16:06:34.648Z,77.27
2017-12-28T16:09:01.473Z,76.33
2017-12-28T16:11:28.315Z,77.65
2017-12-28T16:13:55.162Z,76.53
2017-12-28T16:16:22.009Z,77.96
2017-12-28T16:18:48.814Z,77.67
2017-12-28T16:21:15.925Z,77.68
2017-12-28T16:23:42.756Z,77.48
2017-12-28T16:26:10.342Z,78.53
2017-12-28T16:28:37.171Z,78.16
2017-12-28T16:31:03.956Z,78.08
2017-12-28T16:33:31.525Z,78.06
2017-12-28T16:35:59.063Z,78.06
2017-12-28T16:38:25.879Z,78.37
2017-12-28T16:40:52.722Z,78.69
2017-12-28T16:43:20.279Z,78.83
2017-12-28T16:45:47.112Z,79.35
2017-12-28T16:48:13.943Z,79.33
2017-12-28T16:50:40.758Z,79.63
2017-12-28T16:53:09.912Z,80.01
2017-12-28T16:55:37.563Z,80.12
2017-12-28T16:58:04.377Z,80.41
2017-12-28T17:00:32.386Z,79.87
2017-12-28T17:02:59.999Z,80.41
2017-12-28T17:05:27.545Z,80.65
2017-12-28T17:07:54.363Z,80.29
2017-12-28T17:10:21.169Z,80.38
2017-12-28T17:12:47.985Z,80.37
2017-12-28T17:15:14.839Z,80.73
2017-12-28T17:17:41.688Z,80.46
2017-12-28T17:20:09.281Z,80.76
2017-12-28T17:22:36.105Z,80.96
2017-12-28T17:25:03.089Z,80.86
2017-12-28T17:27:30.722Z,81.13
2017-12-28T17:29:57.561Z,81.21
2017-12-28T17:32:24.366Z,80.92
2017-12-28T17:34:51.226Z,81.24
2017-12-28T17:37:18.097Z,81.46
2017-12-28T17:39:44.969Z,80.96
2017-12-28T17:42:12.585Z,80.97
2017-12-28T17:44:39.410Z,81.51
2017-12-28T17:47:06.989Z,81.28
2017-12-28T17:49:33.828Z,81.56
2017-12-28T17:52:00.668Z,81.88
2017-12-28T17:54:27.489Z,81.38
2017-12-28T17:56:55.261Z,81.44
2017-12-28T17:59:22.135Z,81.60
2017-12-28T18:01:48.997Z,81.85
2017-12-28T18:04:16.655Z,81.63
2017-12-28T18:06:43.514Z,81.74
2017-12-28T18:09:11.144Z,81.72
2017-12-28T18:11:38.030Z,82.09
2017-12-28T18:14:04.926Z,81.87
2017-12-28T18:16:32.473Z,82.39
2017-12-28T18:18:59.444Z,81.89
2017-12-28T18:21:26.290Z,82.38
2017-12-28T18:23:53.377Z,82.86
2017-12-28T18:26:20.232Z,82.68
2017-12-28T18:28:47.080Z,82.99
2017-12-28T18:31:14.469Z,82.83
2017-12-28T18:33:42.313Z,82.65
2017-12-28T18:36:09.219Z,82.29
2017-12-28T18:38:36.100Z,82.68
2017-12-28T18:41:02.977Z,82.59
2017-12-28T18:43:29.813Z,82.61
2017-12-28T18:45:56.730Z,82.55
2017-12-28T18:48:23.635Z,82.82
2017-12-28T18:50:52.301Z,82.73
2017-12-28T18:53:19.529Z,82.64
2017-12-28T18:55:48.065Z,82.64
2017-12-28T18:58:14.980Z,82.22
2017-12-28T19:00:43.598Z,82.45
2017-12-28T19:03:14.640Z,82.46
2017-12-28T19:21:43.422Z,82.75
2017-12-28T19:24:11.462Z,82.68
2017-12-28T19:26:40.201Z,82.55
2017-12-28T19:29:07.168Z,83.19
2017-12-28T19:31:36.419Z,82.95
2017-12-28T19:34:04.061Z,83.08
2017-12-28T19:36:32.554Z,82.99
2017-12-28T19:39:01.938Z,82.84
2017-12-28T19:41:30.682Z,83.22
2017-12-28T19:43:58.930Z,82.83
2017-12-28T19:46:28.436Z,82.91
2017-12-28T19:48:58.494Z,83.42
2017-12-28T19:51:27.338Z,83.57
2017-12-28T19:53:56.317Z,83.54
2017-12-28T19:56:25.182Z,83.13
2017-12-28T19:58:53.972Z,83.26
2017-12-28T20:01:23.111Z,83.12
2017-12-28T20:03:51.710Z,83.04
2017-12-28T20:06:21.248Z,83.24
2017-12-28T20:08:50.198Z,83.07
2017-12-28T20:11:19.190Z,83.31
2017-12-28T20:13:48.001Z,83.01
2017-12-28T20:16:16.969Z,83.07
2017-12-28T20:18:46.581Z,83.24
2017-12-28T20:21:15.376Z,83.29
2017-12-28T20:23:44.302Z,83.47
2017-12-28T20:26:13.955Z,83.41
2017-12-28T20:28:42.554Z,83.26
2017-12-28T20:31:11.446Z,83.30
2017-12-28T20:33:41.157Z,83.42
2017-12-28T20:36:12.915Z,83.52
2017-12-28T20:38:41.985Z,83.35
2017-12-28T20:41:11.067Z,83.42
2017-12-28T20:43:40.887Z,83.98
2017-12-28T20:46:09.772Z,83.59
2017-12-28T20:48:38.921Z,83.57
2017-12-28T20:51:07.818Z,83.47
2017-12-28T20:53:37.877Z,83.50
2017-12-28T20:56:06.836Z,84.05
2017-12-28T20:58:35.652Z,83.95
2017-12-28T21:01:03.806Z,83.99
2017-12-28T21:03:34.397Z,83.66
2017-12-28T21:06:03.150Z,84.09
2017-12-28T21:08:32.688Z,84.21
2017-12-28T21:11:01.500Z,84.28
2017-12-28T21:13:30.261Z,84.08
2017-12-28T21:15:58.758Z,84.07
2017-12-28T21:18:27.636Z,84.21
2017-12-28T21:20:56.553Z,84.11
2017-12-28T21:23:25.415Z,84.41
2017-12-28T21:25:53.148Z,84.42
2017-12-28T21:28:21.428Z,84.20
2017-12-28T21:30:48.868Z,83.90
2017-12-28T21:33:17.118Z,84.19
2017-12-28T21:35:45.465Z,84.04
2017-12-28T21:38:13.800Z,84.12
2017-12-28T21:40:40.920Z,83.89
2017-12-28T21:43:08.601Z,83.68
2017-12-28T21:45:38.139Z,83.78
2017-12-28T21:48:05.775Z,83.91
2017-12-28T21:50:34.618Z,83.92
2017-12-28T21:53:03.240Z,83.84
2017-12-28T21:55:31.447Z,83.95
2017-12-28T21:57:59.631Z,83.97
2017-12-28T22:00:28.414Z,84.06
2017-12-28T22:02:57.644Z,83.85
2017-12-28T22:05:25.244Z,83.86
2017-12-28T22:07:52.490Z,83.54
2017-12-28T22:10:19.811Z,83.72
2017-12-28T22:12:47.694Z,83.68
2017-12-28T22:15:15.175Z,83.70
2017-12-28T22:17:43.033Z,83.61
2017-12-28T22:20:10.525Z,84.00
2017-12-28T22:22:37.434Z,83.76
2017-12-28T22:25:04.378Z,84.17
2017-12-28T22:27:31.401Z,84.03
2017-12-28T22:29:59.033Z,83.93
2017-12-28T22:32:25.925Z,84.01
2017-12-28T22:34:52.812Z,83.99
2017-12-28T22:37:20.350Z,83.57
2017-12-28T22:39:47.152Z,83.91
2017-12-28T22:42:14.004Z,83.98
2017-12-28T22:44:40.828Z,84.08
2017-12-28T22:47:07.642Z,84.01
2017-12-28T22:49:35.456Z,83.75
2017-12-28T22:52:02.261Z,83.74
2017-12-28T22:54:29.073Z,83.83
2017-12-28T22:56:56.243Z,83.99
2017-12-28T22:59:23.113Z,84.03
2017-12-28T23:01:50.001Z,83.71
2017-12-28T23:04:16.805Z,83.54
2017-12-28T23:06:43.635Z,83.62
2017-12-28T23:09:11.245Z,83.48
2017-12-28T23:11:38.068Z,83.83
2017-12-28T23:14:04.915Z,83.48
2017-12-28T23:16:31.804Z,83.38
2017-12-28T23:18:59.372Z,83.61
2017-12-28T23:21:26.151Z,83.73
2017-12-28T23:23:52.998Z,84.01
2017-12-28T23:26:19.807Z,83.85
2017-12-28T23:28:46.596Z,84.11
2017-12-28T23:31:13.396Z,83.33
2017-12-28T23:33:40.932Z,83.22
2017-12-28T23:36:07.724Z,83.64
2017-12-28T23:38:34.597Z,83.57
2017-12-28T23:41:01.399Z,83.51
2017-12-28T23:43:28.221Z,83.75
2017-12-28T23:45:55.064Z,83.53
2017-12-28T23:48:22.601Z,83.53
2017-12-28T23:50:49.502Z,84.08
2017-12-28T23:53:17.110Z,84.51
2017-12-28T23:55:43.927Z,84.82
2017-12-28T23:58:10.793Z,84.69
